Terminal Aerodrome Forecast
Issued by NWS

Home | Current Version | Previous Version | Text Only | Print | Product List | Glossary On
Versions: 1 2 3 4 5 6 7 8 9 10 11 12 13 14 15 16 17 18 19 20 21
000
FTUS41 KGYX 272320
TAFAUG
TAF
KAUG 272320Z 2800/2824 19005KT P6SM SCT050
     FM280500 VRB03KT 5SM BR SCT050
     FM280800 00000KT 3SM BR BKN015
     FM280900 00000KT 3SM BR BKN008
     FM281200 VRB03KT P6SM SCT015
     FM281400 34006KT P6SM SCT250=

USA.gov is the U.S. government's official web portal to all federal, state and local government web resources and services.